DLH37E EDDF-LPFR
Flight info
| Callsign | DLH37E |
|---|---|
| Flight time | N/A |
| Altitude | 33000 |
| Route | SOBRA2L SOBRA Y180 DIK UN857 TOLVU DCT RAPOR DCT GIMER DCT ESTOC DCT PON DCT DITAL DCT GODIX DCT DIDAK DCT KURIS DCT TERPO DCT ERIGA DCT FUJTI DCT PEPET DCT BAKUP DCT BATAX/N0436F350 DCT TOFEF DCT ALAGU DCT USALU |
| Aircraft | A320/M-SDE3FGHIRWY/LB1 |
Departure
| Time | N/A |
|---|---|
| Airport | Frankfurt Main Airport (EDDF) |
Arrival
| Time | 2026-05-06 10:46 |
|---|---|
| Airport | Faro - Gago Coutinho International Airport (LPFR) |
| Time | Latitude | Longitude | Altitude | Speed | Heading |
|---|---|---|---|---|---|
| 2026-05-06 10:24 | 38.48567 | -7.54685 | 33527 ft | 427 kts | 192° |
| 2026-05-06 10:24 | 38.45636 | -7.55181 | 32941 ft | 423 kts | 192° |
| 2026-05-06 10:24 | 38.42728 | -7.55679 | 32366 ft | 419 kts | 192° |
| 2026-05-06 10:25 | 38.39850 | -7.56173 | 31790 ft | 416 kts | 192° |
| 2026-05-06 10:25 | 38.36999 | -7.56662 | 31293 ft | 411 kts | 192° |
| 2026-05-06 10:25 | 38.34183 | -7.57144 | 30786 ft | 407 kts | 192° |
| 2026-05-06 10:25 | 38.31386 | -7.57620 | 30267 ft | 403 kts | 192° |
| 2026-05-06 10:26 | 38.28616 | -7.58093 | 29706 ft | 400 kts | 192° |
| 2026-05-06 10:26 | 38.25862 | -7.58564 | 29113 ft | 397 kts | 192° |
| 2026-05-06 10:26 | 38.23138 | -7.59029 | 28555 ft | 394 kts | 192° |
| 2026-05-06 10:26 | 38.20426 | -7.59490 | 27983 ft | 391 kts | 192° |
| 2026-05-06 10:27 | 38.17734 | -7.59945 | 27419 ft | 389 kts | 192° |
| 2026-05-06 10:27 | 38.15063 | -7.60395 | 26860 ft | 386 kts | 192° |
| 2026-05-06 10:27 | 38.12403 | -7.60843 | 26307 ft | 384 kts | 192° |
| 2026-05-06 10:27 | 38.09790 | -7.61445 | 25769 ft | 378 kts | 200° |
| 2026-05-06 10:28 | 38.07379 | -7.62666 | 25252 ft | 370 kts | 212° |
| 2026-05-06 10:28 | 38.05199 | -7.64369 | 24734 ft | 367 kts | 216° |
| 2026-05-06 10:28 | 38.03079 | -7.66081 | 24226 ft | 365 kts | 215° |
| 2026-05-06 10:28 | 38.00940 | -7.67799 | 23729 ft | 363 kts | 215° |
| 2026-05-06 10:29 | 37.98810 | -7.69498 | 23180 ft | 361 kts | 215° |
| 2026-05-06 10:29 | 37.96680 | -7.71195 | 22550 ft | 361 kts | 215° |
| 2026-05-06 10:29 | 37.94573 | -7.72877 | 22088 ft | 357 kts | 215° |
| 2026-05-06 10:29 | 37.92473 | -7.74555 | 21590 ft | 354 kts | 215° |
| 2026-05-06 10:30 | 37.90396 | -7.76209 | 21142 ft | 351 kts | 215° |
| 2026-05-06 10:30 | 37.88335 | -7.77852 | 20688 ft | 349 kts | 215° |
| 2026-05-06 10:30 | 37.86290 | -7.79484 | 20246 ft | 347 kts | 215° |
| 2026-05-06 10:30 | 37.84255 | -7.81107 | 19811 ft | 345 kts | 214° |
| 2026-05-06 10:31 | 37.82228 | -7.82719 | 19380 ft | 343 kts | 214° |
| 2026-05-06 10:31 | 37.80209 | -7.84323 | 18945 ft | 342 kts | 214° |
| 2026-05-06 10:31 | 37.78202 | -7.85917 | 18520 ft | 340 kts | 214° |
| 2026-05-06 10:31 | 37.76197 | -7.87506 | 18067 ft | 339 kts | 214° |
| 2026-05-06 10:32 | 37.74204 | -7.89084 | 17635 ft | 336 kts | 214° |
| 2026-05-06 10:32 | 37.72253 | -7.90629 | 17229 ft | 334 kts | 214° |
| 2026-05-06 10:32 | 37.70292 | -7.92184 | 16820 ft | 332 kts | 214° |
| 2026-05-06 10:32 | 37.68344 | -7.93732 | 16416 ft | 330 kts | 214° |
| 2026-05-06 10:33 | 37.66407 | -7.95270 | 16027 ft | 328 kts | 214° |
| 2026-05-06 10:33 | 37.64481 | -7.96798 | 15635 ft | 326 kts | 214° |
| 2026-05-06 10:33 | 37.62564 | -7.98318 | 15251 ft | 325 kts | 214° |
| 2026-05-06 10:33 | 37.60659 | -7.99827 | 14865 ft | 323 kts | 214° |
| 2026-05-06 10:34 | 37.58755 | -8.01334 | 14484 ft | 322 kts | 214° |
| 2026-05-06 10:34 | 37.56854 | -8.02834 | 14099 ft | 322 kts | 214° |
| 2026-05-06 10:34 | 37.54958 | -8.04327 | 13702 ft | 321 kts | 214° |
| 2026-05-06 10:34 | 37.53066 | -8.05818 | 13297 ft | 320 kts | 214° |
| 2026-05-06 10:35 | 37.51188 | -8.07299 | 12910 ft | 318 kts | 214° |
| 2026-05-06 10:35 | 37.49318 | -8.08773 | 12525 ft | 316 kts | 214° |
| 2026-05-06 10:35 | 37.47456 | -8.10241 | 12139 ft | 314 kts | 214° |
| 2026-05-06 10:35 | 37.45606 | -8.11697 | 11747 ft | 313 kts | 214° |
| 2026-05-06 10:36 | 37.43760 | -8.13147 | 11360 ft | 312 kts | 214° |
| 2026-05-06 10:36 | 37.41941 | -8.14574 | 10967 ft | 311 kts | 214° |
| 2026-05-06 10:36 | 37.40108 | -8.16013 | 10573 ft | 310 kts | 213° |
| 2026-05-06 10:36 | 37.38295 | -8.17435 | 10376 ft | 302 kts | 214° |
| 2026-05-06 10:37 | 37.36541 | -8.18807 | 10260 ft | 292 kts | 214° |
| 2026-05-06 10:37 | 37.34833 | -8.20146 | 10012 ft | 288 kts | 213° |
| 2026-05-06 10:37 | 37.33140 | -8.21474 | 9669 ft | 286 kts | 214° |
| 2026-05-06 10:37 | 37.31454 | -8.22799 | 9296 ft | 285 kts | 214° |
| 2026-05-06 10:38 | 37.29774 | -8.24115 | 8939 ft | 284 kts | 214° |
| 2026-05-06 10:38 | 37.28103 | -8.25420 | 8585 ft | 282 kts | 214° |
| 2026-05-06 10:38 | 37.26445 | -8.26714 | 8097 ft | 280 kts | 213° |
| 2026-05-06 10:38 | 37.24792 | -8.28006 | 7605 ft | 279 kts | 213° |
| 2026-05-06 10:39 | 37.23077 | -8.29128 | 7112 ft | 278 kts | 200° |
| 2026-05-06 10:39 | 37.21189 | -8.29633 | 6632 ft | 277 kts | 184° |
| 2026-05-06 10:39 | 37.19275 | -8.29479 | 6114 ft | 276 kts | 171° |
| 2026-05-06 10:39 | 37.17378 | -8.29112 | 5565 ft | 276 kts | 172° |
| 2026-05-06 10:40 | 37.15476 | -8.28752 | 5035 ft | 278 kts | 171° |
| 2026-05-06 10:40 | 37.13578 | -8.28397 | 4762 ft | 273 kts | 171° |
| 2026-05-06 10:40 | 37.11710 | -8.28048 | 4503 ft | 268 kts | 171° |
| 2026-05-06 10:40 | 37.09910 | -8.27711 | 4249 ft | 262 kts | 171° |
| 2026-05-06 10:41 | 37.08153 | -8.27267 | 4060 ft | 253 kts | 159° |
| 2026-05-06 10:41 | 37.06683 | -8.26194 | 4001 ft | 238 kts | 137° |
| 2026-05-06 10:41 | 37.05671 | -8.24649 | 4008 ft | 223 kts | 117° |
| 2026-05-06 10:41 | 37.05138 | -8.22883 | 3849 ft | 214 kts | 98° |
| 2026-05-06 10:42 | 37.04880 | -8.21050 | 3589 ft | 214 kts | 97° |
| 2026-05-06 10:42 | 37.04627 | -8.19219 | 3313 ft | 211 kts | 97° |
| 2026-05-06 10:42 | 37.04379 | -8.17444 | 3036 ft | 203 kts | 97° |
| 2026-05-06 10:42 | 37.04144 | -8.15765 | 2786 ft | 189 kts | 97° |
| 2026-05-06 10:43 | 37.03923 | -8.14192 | 2524 ft | 178 kts | 96° |
| 2026-05-06 10:43 | 37.03714 | -8.12704 | 2296 ft | 168 kts | 95° |
| 2026-05-06 10:43 | 37.03517 | -8.11310 | 2085 ft | 157 kts | 94° |
| 2026-05-06 10:44 | 37.03157 | -8.08742 | 1678 ft | 146 kts | 96° |
| 2026-05-06 10:44 | 37.02981 | -8.07487 | 1468 ft | 146 kts | 94° |
| 2026-05-06 10:44 | 37.02805 | -8.06232 | 1275 ft | 146 kts | 95° |
| 2026-05-06 10:44 | 37.02628 | -8.04977 | 1067 ft | 147 kts | 96° |
| 2026-05-06 10:45 | 37.02450 | -8.03714 | 881 ft | 147 kts | 100° |
| 2026-05-06 10:45 | 37.02274 | -8.02466 | 678 ft | 145 kts | 101° |
| 2026-05-06 10:45 | 37.02099 | -8.01228 | 488 ft | 148 kts | 101° |
| 2026-05-06 10:45 | 37.01923 | -7.99962 | 315 ft | 148 kts | 100° |
| 2026-05-06 10:46 | 37.01734 | -7.98672 | 117 ft | 153 kts | 99° |
| 2026-05-06 10:46 | 37.01558 | -7.97394 | 20 ft | 137 kts | 99° |
| 2026-05-06 10:46 | 37.01423 | -7.96430 | 23 ft | 84 kts | 100° |
| 2026-05-06 10:46 | 37.01366 | -7.96038 | 23 ft | 23 kts | 100° |
| 2026-05-06 10:47 | 37.01346 | -7.95899 | 21 ft | 10 kts | 95° |
| 2026-05-06 10:47 | 37.01392 | -7.95857 | 20 ft | 9 kts | 8° |
| 2026-05-06 10:47 | 37.01453 | -7.95844 | 20 ft | 9 kts | 10° |
| 2026-05-06 10:47 | 37.01509 | -7.95857 | 19 ft | 8 kts | 324° |
| 2026-05-06 10:48 | 37.01536 | -7.95951 | 19 ft | 14 kts | 279° |
| 2026-05-06 10:48 | 37.01556 | -7.96093 | 19 ft | 18 kts | 280° |
| 2026-05-06 10:48 | 37.01580 | -7.96258 | 20 ft | 20 kts | 281° |
| 2026-05-06 10:48 | 37.01607 | -7.96441 | 20 ft | 22 kts | 281° |
| 2026-05-06 10:49 | 37.01635 | -7.96639 | 20 ft | 24 kts | 280° |
| 2026-05-06 10:49 | 37.01653 | -7.96769 | 20 ft | 18 kts | 279° |
| 2026-05-06 10:49 | 37.01703 | -7.96902 | 20 ft | 14 kts | 353° |
| 2026-05-06 10:49 | 37.01808 | -7.96877 | 20 ft | 17 kts | 21° |
| 2026-05-06 10:50 | 37.01882 | -7.96855 | 20 ft | 7 kts | 9° |
| 2026-05-06 10:50 | 37.01913 | -7.96848 | 20 ft | 2 kts | 9° |
| 2026-05-06 10:50 | 37.01918 | -7.96847 | 20 ft | 0 kts | 9° |